createdAt,value
2019-03-10T00:00:27.274Z,0
2019-03-10T00:01:27.632Z,0
2019-03-10T00:02:27.322Z,0
2019-03-10T00:03:27.344Z,0
2019-03-10T00:04:27.182Z,0
2019-03-10T00:05:27.445Z,0
2019-03-10T00:06:27.277Z,0
2019-03-10T00:07:27.647Z,0
2019-03-10T00:08:27.366Z,0
2019-03-10T00:09:27.261Z,0
2019-03-10T00:10:27.273Z,0
2019-03-10T00:11:27.285Z,0
2019-03-10T00:12:27.316Z,0
2019-03-10T00:13:32.991Z,0
2019-03-10T00:14:27.230Z,0
2019-03-10T00:15:27.273Z,0
2019-03-10T00:16:27.426Z,0
2019-03-10T00:17:27.216Z,0
2019-03-10T00:18:27.256Z,0
2019-03-10T00:19:29.738Z,0
2019-03-10T00:20:27.252Z,0
2019-03-10T00:21:27.261Z,0
2019-03-10T00:22:27.222Z,0
2019-03-10T00:23:27.290Z,0
2019-03-10T00:24:27.245Z,0
2019-03-10T00:25:27.957Z,0
2019-03-10T00:26:29.343Z,0
2019-03-10T00:27:27.286Z,0
2019-03-10T00:28:27.361Z,0
2019-03-10T00:29:27.285Z,0
2019-03-10T00:30:27.405Z,0
2019-03-10T00:31:27.779Z,0
2019-03-10T00:32:27.274Z,0
2019-03-10T00:33:27.388Z,0
2019-03-10T00:34:28.119Z,0
2019-03-10T00:35:27.276Z,0
2019-03-10T00:36:27.281Z,0
2019-03-10T00:37:27.619Z,0
2019-03-10T00:38:27.407Z,0
2019-03-10T00:39:27.451Z,0
2019-03-10T00:40:27.269Z,0
2019-03-10T00:41:27.272Z,0
2019-03-10T00:42:27.416Z,0
2019-03-10T00:43:28.737Z,0
2019-03-10T00:44:27.325Z,0
2019-03-10T00:45:27.408Z,0
2019-03-10T00:46:27.341Z,0
2019-03-10T00:47:27.384Z,0
2019-03-10T00:48:27.457Z,0
2019-03-10T00:49:27.668Z,0
2019-03-10T00:50:27.494Z,0
2019-03-10T00:51:27.286Z,0
2019-03-10T00:52:27.353Z,0
2019-03-10T00:53:27.486Z,0
2019-03-10T00:54:27.288Z,0
2019-03-10T00:55:27.723Z,0
2019-03-10T00:56:27.407Z,0
2019-03-10T00:57:27.338Z,0
2019-03-10T00:58:27.394Z,0
2019-03-10T00:59:27.331Z,0
2019-03-10T01:00:27.295Z,0
2019-03-10T01:01:28.714Z,0
2019-03-10T01:02:27.387Z,0
2019-03-10T01:03:27.355Z,0
2019-03-10T01:04:27.333Z,0
2019-03-10T01:05:27.388Z,0
2019-03-10T01:06:27.620Z,0
2019-03-10T01:07:27.688Z,0
2019-03-10T01:08:27.481Z,0
2019-03-10T01:09:27.390Z,0
2019-03-10T01:10:27.326Z,0
2019-03-10T01:11:27.304Z,0
2019-03-10T01:12:27.437Z,0
2019-03-10T01:13:28.713Z,0
2019-03-10T01:14:27.440Z,0
2019-03-10T01:15:27.304Z,0
2019-03-10T01:16:27.334Z,0
2019-03-10T01:17:27.408Z,0
2019-03-10T01:18:27.416Z,0
2019-03-10T01:19:27.699Z,0
2019-03-10T01:20:27.339Z,0
2019-03-10T01:21:27.364Z,0
2019-03-10T01:22:27.417Z,0
2019-03-10T01:23:27.518Z,0
2019-03-10T01:24:27.415Z,0
2019-03-10T01:25:27.727Z,0
2019-03-10T01:26:27.400Z,0
2019-03-10T01:27:27.419Z,0
2019-03-10T01:28:27.384Z,0
2019-03-10T01:29:27.431Z,0
2019-03-10T01:30:27.397Z,0
2019-03-10T01:31:27.778Z,0
2019-03-10T01:32:27.344Z,0
2019-03-10T01:33:27.477Z,0
2019-03-10T01:34:27.387Z,0
2019-03-10T01:35:27.356Z,0
2019-03-10T01:36:27.668Z,0
2019-03-10T01:37:27.707Z,0
2019-03-10T01:38:27.428Z,0
2019-03-10T01:39:27.417Z,0
2019-03-10T01:40:27.434Z,0
2019-03-10T01:41:27.819Z,0
2019-03-10T01:42:27.439Z,0
2019-03-10T01:43:27.763Z,0
2019-03-10T01:44:27.381Z,0
2019-03-10T01:45:27.434Z,0
2019-03-10T01:46:27.549Z,0
2019-03-10T01:47:27.504Z,0
2019-03-10T01:48:27.440Z,0
2019-03-10T01:49:28.502Z,0
2019-03-10T01:50:28.214Z,0
2019-03-10T01:51:27.417Z,0
2019-03-10T01:52:27.473Z,0
2019-03-10T01:53:36.634Z,0
2019-03-10T01:54:27.806Z,0
2019-03-10T01:55:27.770Z,0
2019-03-10T01:56:27.508Z,0
2019-03-10T01:57:27.400Z,0
2019-03-10T01:58:28.790Z,0
2019-03-10T01:59:27.441Z,0
2019-03-10T02:00:27.424Z,0
2019-03-10T02:01:28.814Z,0
2019-03-10T02:02:36.358Z,0
2019-03-10T02:03:27.661Z,0
2019-03-10T02:04:27.400Z,0
2019-03-10T02:05:27.399Z,0
2019-03-10T02:06:28.125Z,0
2019-03-10T02:07:27.824Z,0
2019-03-10T02:08:27.458Z,0
2019-03-10T02:09:27.424Z,0
2019-03-10T02:10:27.493Z,0
2019-03-10T02:11:27.440Z,0
2019-03-10T02:12:27.454Z,0
2019-03-10T02:13:29.825Z,0
2019-03-10T02:14:27.456Z,0
2019-03-10T02:15:27.372Z,0
2019-03-10T02:16:27.391Z,0
2019-03-10T02:17:27.536Z,0
2019-03-10T02:18:27.492Z,0
2019-03-10T02:19:27.684Z,0
2019-03-10T02:20:27.464Z,0
2019-03-10T02:21:27.484Z,0
2019-03-10T02:22:27.429Z,0
2019-03-10T02:23:27.412Z,0
2019-03-10T02:24:35.197Z,0
2019-03-10T02:25:29.971Z,0
2019-03-10T02:26:27.435Z,0
2019-03-10T02:27:27.480Z,0
2019-03-10T02:28:27.435Z,0
2019-03-10T02:29:27.413Z,0
2019-03-10T02:30:27.461Z,0
2019-03-10T02:31:27.966Z,0
2019-03-10T02:32:27.577Z,0
2019-03-10T02:33:27.678Z,0
2019-03-10T02:34:27.488Z,0
2019-03-10T02:35:27.453Z,0
2019-03-10T02:36:27.478Z,0
2019-03-10T02:37:35.173Z,0
2019-03-10T02:38:27.541Z,0
2019-03-10T02:39:27.467Z,0
2019-03-10T02:40:27.481Z,0
2019-03-10T02:41:27.453Z,0
2019-03-10T02:42:27.500Z,0
2019-03-10T02:43:27.946Z,0
2019-03-10T02:44:27.491Z,0
2019-03-10T02:45:27.584Z,0
2019-03-10T02:46:27.546Z,0
2019-03-10T02:47:27.559Z,0
2019-03-10T02:48:27.536Z,0
2019-03-10T02:49:27.786Z,0
2019-03-10T02:50:27.516Z,0
2019-03-10T02:51:27.482Z,0
2019-03-10T02:52:27.531Z,0
2019-03-10T02:53:27.451Z,0
2019-03-10T02:54:27.575Z,0
2019-03-10T02:55:27.820Z,0
2019-03-10T02:56:27.557Z,0
2019-03-10T02:57:27.640Z,0
2019-03-10T02:59:02.486Z,0
2019-03-10T02:59:27.458Z,0
2019-03-10T03:00:27.531Z,0
2019-03-10T03:01:27.778Z,0
2019-03-10T03:02:27.594Z,0
2019-03-10T03:03:27.598Z,0
2019-03-10T03:04:27.630Z,0
2019-03-10T03:05:27.455Z,0
2019-03-10T03:06:27.725Z,0
2019-03-10T03:07:27.899Z,0
2019-03-10T03:08:28.290Z,0
2019-03-10T03:09:27.731Z,0
2019-03-10T03:10:27.632Z,0
2019-03-10T03:11:27.551Z,0
2019-03-10T03:12:27.699Z,0
2019-03-10T03:13:27.904Z,0
2019-03-10T03:14:27.673Z,0
2019-03-10T03:15:27.739Z,0
2019-03-10T03:16:27.542Z,0
2019-03-10T03:17:27.622Z,0
2019-03-10T03:18:27.687Z,0
2019-03-10T03:19:29.132Z,0
2019-03-10T03:20:27.647Z,0
2019-03-10T03:21:41.702Z,0
2019-03-10T03:22:27.684Z,0
2019-03-10T03:23:27.641Z,0
2019-03-10T03:24:27.553Z,0
2019-03-10T03:25:28.084Z,0
2019-03-10T03:26:27.679Z,0
2019-03-10T03:27:27.541Z,0
2019-03-10T03:28:27.704Z,0
2019-03-10T03:29:27.573Z,0
2019-03-10T03:30:27.713Z,0
2019-03-10T03:31:28.949Z,0
2019-03-10T03:32:27.606Z,0
2019-03-10T03:33:27.671Z,0
2019-03-10T03:34:27.646Z,0
2019-03-10T03:35:27.573Z,0
2019-03-10T03:36:27.547Z,0
2019-03-10T03:37:27.884Z,0
2019-03-10T03:38:27.590Z,0
2019-03-10T03:39:27.568Z,0
2019-03-10T03:44:44.172Z,0
2019-03-10T03:44:56.110Z,0
2019-03-10T03:45:56.161Z,0
2019-03-10T03:46:56.177Z,0
2019-03-10T03:47:56.167Z,0
2019-03-10T03:48:56.642Z,0
2019-03-10T03:49:56.142Z,0
2019-03-10T03:50:56.255Z,0
2019-03-10T03:51:56.138Z,0
2019-03-10T03:57:13.211Z,0
2019-03-10T03:57:25.276Z,0
2019-03-10T03:58:25.223Z,0
2019-03-10T03:59:25.204Z,0
2019-03-10T04:00:25.226Z,0
2019-03-10T04:01:25.899Z,0
2019-03-10T04:02:25.246Z,0
2019-03-10T04:09:53.230Z,0
2019-03-10T04:10:05.478Z,0
2019-03-10T04:11:05.383Z,0
2019-03-10T04:12:05.301Z,0
2019-03-10T04:13:05.434Z,0
2019-03-10T04:14:05.347Z,0
2019-03-10T04:15:06.913Z,0
2019-03-10T04:16:05.299Z,0
2019-03-10T04:17:05.397Z,0
2019-03-10T04:18:05.266Z,0
2019-03-10T04:19:05.274Z,0
2019-03-10T04:20:05.306Z,0
2019-03-10T04:21:09.233Z,0
2019-03-10T04:22:05.452Z,0
2019-03-10T04:23:05.230Z,0
2019-03-10T04:24:05.250Z,0
2019-03-10T04:25:05.487Z,0
2019-03-10T04:26:05.535Z,0
2019-03-10T04:27:10.246Z,0
2019-03-10T04:28:05.290Z,0
2019-03-10T04:29:05.440Z,0
2019-03-10T04:30:05.412Z,0
2019-03-10T04:31:05.308Z,0
2019-03-10T04:32:05.589Z,0
2019-03-10T04:33:10.047Z,0
2019-03-10T04:34:05.505Z,0
2019-03-10T04:35:05.405Z,0
2019-03-10T04:36:05.605Z,0
2019-03-10T04:37:05.348Z,0
2019-03-10T04:38:05.329Z,0
2019-03-10T04:39:05.607Z,0
2019-03-10T04:40:05.336Z,0
2019-03-10T04:41:05.454Z,0
2019-03-10T04:42:05.379Z,0
2019-03-10T04:43:05.327Z,0
2019-03-10T04:44:05.363Z,0
2019-03-10T04:45:06.936Z,0
2019-03-10T04:46:05.452Z,0
2019-03-10T04:47:05.483Z,0
2019-03-10T04:48:05.332Z,0
2019-03-10T04:49:05.467Z,0
2019-03-10T04:50:05.329Z,0
2019-03-10T04:51:05.746Z,0
2019-03-10T04:52:05.286Z,0
2019-03-10T04:53:05.357Z,0
2019-03-10T04:58:22.373Z,0
2019-03-10T04:58:34.464Z,0
2019-03-10T04:59:34.408Z,0
2019-03-10T05:00:34.312Z,0
2019-03-10T05:01:34.421Z,0
2019-03-10T05:02:34.841Z,0
2019-03-10T05:03:34.392Z,0
2019-03-10T05:04:34.648Z,0
2019-03-10T05:05:34.416Z,0
2019-03-10T05:06:34.456Z,0
2019-03-10T05:07:34.364Z,0
2019-03-10T05:08:36.877Z,0
2019-03-10T05:09:34.405Z,0
2019-03-10T05:10:36.391Z,0
2019-03-10T05:11:34.387Z,0
2019-03-10T05:12:34.493Z,0
2019-03-10T05:13:34.360Z,0
2019-03-10T05:14:35.695Z,0
2019-03-10T05:15:34.403Z,0
2019-03-10T05:16:34.411Z,0
2019-03-10T05:17:35.113Z,0
2019-03-10T05:18:34.362Z,0
2019-03-10T05:19:34.386Z,0
2019-03-10T05:20:35.006Z,0
2019-03-10T05:21:34.382Z,0
2019-03-10T05:22:34.412Z,0
2019-03-10T05:23:34.518Z,0
2019-03-10T05:24:34.433Z,0
2019-03-10T05:25:34.581Z,0
2019-03-10T05:26:34.762Z,0
2019-03-10T05:27:34.356Z,0
2019-03-10T05:28:34.356Z,0
2019-03-10T05:29:34.392Z,0
2019-03-10T05:30:34.577Z,0
2019-03-10T05:31:34.453Z,0
2019-03-10T05:32:35.304Z,0
2019-03-10T05:33:34.466Z,0
2019-03-10T05:41:00.963Z,0
2019-03-10T05:41:13.012Z,0
2019-03-10T05:42:13.223Z,0
2019-03-10T05:43:13.271Z,0
2019-03-10T05:44:13.108Z,0
2019-03-10T05:45:13.086Z,0
2019-03-10T05:46:13.185Z,0
2019-03-10T05:47:12.949Z,0
2019-03-10T05:48:13.074Z,0
2019-03-10T05:49:13.341Z,0
2019-03-10T05:50:13.000Z,0
2019-03-10T05:51:13.094Z,0
2019-03-10T05:52:13.030Z,0
2019-03-10T05:53:13.016Z,0
2019-03-10T05:54:13.132Z,0
2019-03-10T05:55:13.346Z,0
2019-03-10T05:56:13.011Z,0
2019-03-10T05:57:13.047Z,0
2019-03-10T05:58:13.097Z,0
2019-03-10T05:59:13.070Z,0
2019-03-10T06:00:12.972Z,0
2019-03-10T06:01:13.262Z,0
2019-03-10T06:02:12.980Z,0
2019-03-10T06:03:13.234Z,0
2019-03-10T06:04:12.999Z,0
2019-03-10T06:05:14.551Z,0
2019-03-10T06:06:13.144Z,0
2019-03-10T06:07:13.462Z,0
2019-03-10T06:08:13.089Z,0
2019-03-10T06:09:13.126Z,0
2019-03-10T06:10:13.069Z,0
2019-03-10T06:11:12.996Z,0
2019-03-10T06:12:13.082Z,0
2019-03-10T06:13:13.398Z,0
2019-03-10T06:20:40.704Z,0
2019-03-10T06:20:52.741Z,0
2019-03-10T06:21:52.603Z,0
2019-03-10T06:22:52.815Z,0
2019-03-10T06:23:52.622Z,0
2019-03-10T06:24:52.749Z,0
2019-03-10T06:25:53.135Z,0
2019-03-10T06:26:52.702Z,0
2019-03-10T06:27:52.605Z,0
2019-03-10T06:28:53.874Z,0
2019-03-10T06:29:52.681Z,0
2019-03-10T06:30:52.741Z,0
2019-03-10T06:31:53.135Z,0
2019-03-10T06:32:52.644Z,0
2019-03-10T06:33:52.813Z,0
2019-03-10T06:34:52.664Z,0
2019-03-10T06:35:52.674Z,0
2019-03-10T06:36:52.674Z,0
2019-03-10T06:37:54.125Z,0
2019-03-10T06:38:54.981Z,0
2019-03-10T06:39:52.716Z,0
2019-03-10T06:40:52.664Z,0
2019-03-10T06:41:52.718Z,0
2019-03-10T06:42:52.810Z,0
2019-03-10T06:43:54.996Z,0
2019-03-10T06:44:52.695Z,0
2019-03-10T06:45:52.694Z,0
2019-03-10T06:46:52.720Z,0
2019-03-10T06:47:52.696Z,0
2019-03-10T06:48:52.730Z,0
2019-03-10T06:49:54.085Z,0
2019-03-10T06:50:52.699Z,0
2019-03-10T07:02:40.591Z,0
2019-03-10T07:02:52.530Z,0
2019-03-10T07:03:52.486Z,0
2019-03-10T07:04:52.544Z,0
2019-03-10T07:05:52.920Z,0
2019-03-10T07:06:52.527Z,0
2019-03-10T07:07:52.572Z,0
2019-03-10T07:08:52.560Z,0
2019-03-10T07:09:52.577Z,0
2019-03-10T07:10:52.564Z,0
2019-03-10T07:11:52.961Z,0
2019-03-10T07:19:20.182Z,0
2019-03-10T07:19:32.218Z,0
2019-03-10T07:20:32.170Z,0
2019-03-10T07:21:32.299Z,0
2019-03-10T07:22:32.218Z,0
2019-03-10T07:23:32.200Z,0
2019-03-10T07:24:32.463Z,0
2019-03-10T07:25:32.133Z,0
2019-03-10T07:26:32.258Z,0
2019-03-10T07:27:32.217Z,0
2019-03-10T07:28:32.391Z,0
2019-03-10T07:29:32.334Z,0
2019-03-10T07:30:32.635Z,0
2019-03-10T07:31:32.276Z,0
2019-03-10T07:32:32.362Z,0
2019-03-10T07:33:32.214Z,0
2019-03-10T07:34:32.198Z,0
2019-03-10T07:35:32.205Z,0
2019-03-10T07:36:32.519Z,0
2019-03-10T07:41:50.156Z,0
2019-03-10T07:42:02.625Z,0
2019-03-10T07:43:02.222Z,0
2019-03-10T07:44:02.330Z,0
2019-03-10T07:45:02.491Z,0
2019-03-10T07:46:02.167Z,0
2019-03-10T07:47:02.172Z,0
2019-03-10T07:48:03.461Z,0
2019-03-10T07:49:02.158Z,0
2019-03-10T07:50:02.344Z,0
2019-03-10T07:51:02.169Z,0
2019-03-10T07:52:02.393Z,0
2019-03-10T07:53:02.147Z,0
2019-03-10T07:54:02.470Z,0
2019-03-10T07:55:02.267Z,0
2019-03-10T07:56:02.253Z,0
2019-03-10T07:57:02.275Z,0
2019-03-10T07:58:02.272Z,0
2019-03-10T08:01:09.446Z,0
2019-03-10T08:01:21.756Z,0
2019-03-10T08:02:21.437Z,0
2019-03-10T08:03:21.482Z,0
2019-03-10T08:04:21.434Z,0
2019-03-10T08:05:21.376Z,0
2019-03-10T08:06:22.695Z,0
2019-03-10T08:07:21.463Z,0
2019-03-10T08:08:21.507Z,0
2019-03-10T08:09:21.407Z,0
2019-03-10T08:10:21.472Z,0
2019-03-10T08:15:39.512Z,0
2019-03-10T08:15:51.499Z,0
2019-03-10T08:16:51.575Z,0
2019-03-10T08:17:51.464Z,0
2019-03-10T08:18:51.455Z,0
2019-03-10T08:19:51.873Z,0
2019-03-10T08:20:51.486Z,0
2019-03-10T08:21:51.403Z,0
2019-03-10T08:22:51.511Z,0
2019-03-10T08:23:51.592Z,0
2019-03-10T08:24:51.407Z,0
2019-03-10T08:25:51.913Z,0
2019-03-10T08:26:51.438Z,0
2019-03-10T08:28:01.066Z,0
2019-03-10T08:28:51.546Z,0
2019-03-10T08:29:51.570Z,0
2019-03-10T08:30:51.512Z,0
2019-03-10T08:31:53.939Z,0
2019-03-10T08:32:51.566Z,0
2019-03-10T08:33:51.505Z,0
2019-03-10T08:34:51.501Z,0
2019-03-10T08:35:51.612Z,0
2019-03-10T08:36:51.481Z,0
2019-03-10T08:37:51.867Z,0
2019-03-10T08:38:51.529Z,0
2019-03-10T08:39:51.856Z,0
2019-03-10T08:40:51.572Z,0
2019-03-10T08:41:51.609Z,0
2019-03-10T08:42:52.774Z,0
2019-03-10T08:43:51.879Z,0
2019-03-10T08:44:51.613Z,0
2019-03-10T08:45:51.697Z,0
2019-03-10T08:46:51.546Z,0
2019-03-10T08:47:51.637Z,0
2019-03-10T08:48:51.526Z,5
2019-03-10T08:49:57.063Z,5
2019-03-10T08:50:51.584Z,0
2019-03-10T08:51:51.581Z,0
2019-03-10T08:52:51.723Z,0
2019-03-10T08:53:51.536Z,0
2019-03-10T08:54:51.569Z,0
2019-03-10T08:55:51.957Z,0
2019-03-10T08:56:51.574Z,0
2019-03-10T08:57:51.620Z,0
2019-03-10T08:58:51.670Z,5
2019-03-10T08:59:51.602Z,0
2019-03-10T09:00:51.691Z,5
2019-03-10T09:01:52.090Z,5
2019-03-10T09:02:51.544Z,5
2019-03-10T09:03:51.664Z,5
2019-03-10T09:04:51.780Z,5
2019-03-10T09:05:51.744Z,5
2019-03-10T09:06:53.295Z,5
2019-03-10T09:07:51.623Z,5
2019-03-10T09:08:51.673Z,5
2019-03-10T09:09:54.342Z,5
2019-03-10T09:10:51.605Z,5
2019-03-10T09:11:51.711Z,10
2019-03-10T09:12:52.123Z,10
2019-03-10T09:13:51.586Z,10
2019-03-10T09:14:51.634Z,10
2019-03-10T09:15:52.490Z,10
2019-03-10T09:16:51.585Z,10
2019-03-10T09:17:52.285Z,10
2019-03-10T09:18:53.278Z,10
2019-03-10T09:19:51.762Z,10
2019-03-10T09:20:51.643Z,10
2019-03-10T09:21:51.783Z,10
2019-03-10T09:22:51.689Z,10
2019-03-10T09:23:51.985Z,10
2019-03-10T09:24:53.199Z,10
2019-03-10T09:25:51.698Z,10
2019-03-10T09:26:51.603Z,10
2019-03-10T09:27:51.631Z,10
2019-03-10T09:28:51.739Z,10
2019-03-10T09:29:51.662Z,10
2019-03-10T09:30:51.975Z,10
2019-03-10T09:31:51.912Z,10
2019-03-10T09:32:51.824Z,10
2019-03-10T09:33:52.026Z,10
2019-03-10T09:34:51.626Z,10
2019-03-10T09:35:51.870Z,10
2019-03-10T09:36:52.189Z,10
2019-03-10T09:37:51.997Z,10
2019-03-10T09:38:51.835Z,10
2019-03-10T09:39:51.632Z,5
2019-03-10T09:40:51.663Z,10
2019-03-10T09:41:51.772Z,5
2019-03-10T09:42:52.139Z,5
2019-03-10T09:43:51.713Z,5
2019-03-10T09:51:19.889Z,5
2019-03-10T09:51:32.230Z,5
2019-03-10T09:52:32.420Z,5
2019-03-10T09:53:32.160Z,5
2019-03-10T09:54:32.309Z,5
2019-03-10T09:55:32.621Z,5
2019-03-10T09:56:33.442Z,5
2019-03-10T09:57:32.256Z,5
2019-03-10T09:58:32.382Z,10
2019-03-10T09:59:32.035Z,10
2019-03-10T10:00:32.741Z,5
2019-03-10T10:01:32.750Z,5
2019-03-10T10:02:35.706Z,5
2019-03-10T10:03:32.473Z,5
2019-03-10T10:04:32.818Z,5
2019-03-10T10:05:32.608Z,5
2019-03-10T10:06:33.036Z,10
2019-03-10T10:07:33.186Z,5
2019-03-10T10:08:32.996Z,5
2019-03-10T10:09:33.454Z,5
2019-03-10T10:10:33.200Z,10
2019-03-10T10:11:33.276Z,10
2019-03-10T10:12:32.921Z,10
2019-03-10T10:13:32.608Z,10
2019-03-10T10:14:33.541Z,10
2019-03-10T10:15:33.173Z,10
2019-03-10T10:16:32.825Z,10
2019-03-10T10:17:33.126Z,10
2019-03-10T10:18:33.472Z,10
2019-03-10T10:19:33.382Z,15
2019-03-10T10:20:41.969Z,10
2019-03-10T10:21:33.537Z,10
2019-03-10T10:22:33.276Z,10
2019-03-10T10:23:33.416Z,10
2019-03-10T10:24:33.025Z,10
2019-03-10T10:25:33.375Z,10
2019-03-10T10:28:19.595Z,10
2019-03-10T10:28:33.392Z,10
2019-03-10T10:29:33.693Z,15
2019-03-10T10:30:33.437Z,15
2019-03-10T10:31:34.370Z,15
2019-03-10T10:32:33.507Z,15
2019-03-10T10:33:38.499Z,10
2019-03-10T10:34:33.783Z,10
2019-03-10T10:35:33.448Z,15
2019-03-10T10:36:33.704Z,15
2019-03-10T10:37:35.480Z,15
2019-03-10T10:38:33.632Z,15
2019-03-10T10:39:34.257Z,15
2019-03-10T10:40:33.925Z,10
2019-03-10T10:41:33.840Z,10
2019-03-10T10:42:33.748Z,10
2019-03-10T10:43:34.040Z,10
2019-03-10T10:44:33.977Z,10
2019-03-10T10:45:35.487Z,10
2019-03-10T10:46:33.685Z,10
2019-03-10T10:47:33.753Z,10
2019-03-10T10:48:33.934Z,5
2019-03-10T10:49:33.753Z,5
2019-03-10T10:50:33.768Z,5
2019-03-10T10:51:36.690Z,5
2019-03-10T10:52:33.741Z,10
2019-03-10T10:53:34.176Z,10
2019-03-10T10:54:33.650Z,10
2019-03-10T10:55:36.825Z,10
2019-03-10T10:56:33.789Z,10
2019-03-10T10:57:34.044Z,10
2019-03-10T10:58:33.643Z,10
2019-03-10T10:59:33.607Z,10
2019-03-10T11:00:33.324Z,15
2019-03-10T11:01:33.079Z,15
2019-03-10T11:02:34.320Z,20
2019-03-10T11:03:34.368Z,20
2019-03-10T11:04:32.723Z,25
2019-03-10T11:05:33.507Z,25
2019-03-10T11:06:33.488Z,20
2019-03-10T11:07:33.125Z,20
2019-03-10T11:08:33.243Z,20
2019-03-10T11:09:33.537Z,20
2019-03-10T11:10:33.442Z,20
2019-03-10T11:11:33.600Z,20
2019-03-10T11:12:33.588Z,15
2019-03-10T11:13:34.457Z,20
2019-03-10T11:14:34.016Z,20
2019-03-10T11:15:33.592Z,25
2019-03-10T11:16:33.460Z,20
2019-03-10T11:17:33.438Z,20
2019-03-10T11:18:33.446Z,20
2019-03-10T11:19:33.464Z,20
2019-03-10T11:20:34.685Z,20
2019-03-10T11:21:33.725Z,40
2019-03-10T11:22:34.111Z,55
2019-03-10T11:23:34.441Z,30
2019-03-10T11:24:33.655Z,20
2019-03-10T11:25:33.766Z,25
2019-03-10T11:26:37.295Z,40
2019-03-10T11:27:33.776Z,25
2019-03-10T11:28:33.827Z,55
2019-03-10T11:29:33.384Z,20
2019-03-10T11:30:33.592Z,20
2019-03-10T11:31:34.202Z,20
2019-03-10T11:32:37.967Z,20
2019-03-10T11:34:07.182Z,30
2019-03-10T11:34:33.558Z,25
2019-03-10T11:35:33.772Z,20
2019-03-10T11:36:33.693Z,20
2019-03-10T11:37:33.876Z,15
2019-03-10T11:38:34.369Z,20
2019-03-10T11:39:33.821Z,20
2019-03-10T11:40:33.805Z,20
2019-03-10T11:41:45.360Z,20
2019-03-10T11:42:33.886Z,20
2019-03-10T11:43:35.633Z,20
2019-03-10T11:44:34.443Z,20
2019-03-10T11:45:34.199Z,20
2019-03-10T11:46:33.781Z,20
2019-03-10T11:47:33.476Z,20
2019-03-10T11:48:33.643Z,15
2019-03-10T11:49:33.787Z,15
2019-03-10T11:50:36.441Z,20
2019-03-10T11:51:33.889Z,15
2019-03-10T11:52:34.048Z,20
2019-03-10T11:53:35.125Z,20
2019-03-10T11:54:33.814Z,20
2019-03-10T11:55:34.154Z,20
2019-03-10T11:56:37.907Z,15
2019-03-10T11:57:34.032Z,15
2019-03-10T11:58:36.548Z,20
2019-03-10T11:59:33.872Z,20
2019-03-10T12:00:34.092Z,20
2019-03-10T12:01:34.071Z,20
2019-03-10T12:02:34.536Z,20
2019-03-10T12:03:34.216Z,20
2019-03-10T12:04:34.121Z,20
2019-03-10T12:05:34.134Z,20
2019-03-10T12:06:34.202Z,25
2019-03-10T12:07:34.283Z,20
2019-03-10T12:08:35.180Z,20
2019-03-10T12:09:34.096Z,20
2019-03-10T12:10:34.449Z,20
2019-03-10T12:11:34.258Z,15
2019-03-10T12:12:34.296Z,15
2019-03-10T12:13:34.302Z,10
2019-03-10T12:14:38.028Z,15
2019-03-10T12:15:34.279Z,15
2019-03-10T12:16:34.602Z,15
2019-03-10T12:17:34.088Z,15
2019-03-10T12:18:34.140Z,20
2019-03-10T12:19:34.018Z,20
2019-03-10T12:20:34.449Z,20
2019-03-10T12:21:34.104Z,20
2019-03-10T12:22:37.995Z,15
2019-03-10T12:23:34.364Z,20
2019-03-10T12:24:34.229Z,20
2019-03-10T12:25:34.580Z,15
2019-03-10T12:26:34.569Z,20
2019-03-10T12:27:34.294Z,20
2019-03-10T12:28:34.240Z,20
2019-03-10T12:29:35.105Z,20
2019-03-10T12:30:34.302Z,15
2019-03-10T12:31:34.294Z,15
2019-03-10T12:32:34.632Z,10
2019-03-10T12:33:34.318Z,15
2019-03-10T12:34:34.162Z,15
2019-03-10T12:35:43.845Z,15
2019-03-10T12:36:34.288Z,15
2019-03-10T12:37:41.547Z,15
2019-03-10T12:38:43.057Z,15
2019-03-10T12:39:34.929Z,10
2019-03-10T12:40:34.487Z,10
2019-03-10T12:41:34.226Z,10
2019-03-10T12:42:34.135Z,10
2019-03-10T12:43:34.472Z,5
2019-03-10T12:44:35.466Z,5
2019-03-10T12:45:34.930Z,5
2019-03-10T12:46:34.336Z,10
2019-03-10T12:47:34.356Z,10
2019-03-10T12:48:34.458Z,10
2019-03-10T12:49:34.180Z,5
2019-03-10T12:50:38.388Z,10
2019-03-10T12:51:34.915Z,15
2019-03-10T12:52:34.092Z,15
2019-03-10T12:53:34.242Z,15
2019-03-10T12:54:35.264Z,10
2019-03-10T12:55:34.334Z,10
2019-03-10T12:56:36.464Z,5
2019-03-10T12:57:34.289Z,10
2019-03-10T12:58:34.252Z,10
2019-03-10T12:59:34.372Z,10
2019-03-10T13:00:35.584Z,10
2019-03-10T13:01:34.332Z,15
2019-03-10T13:02:35.658Z,20
2019-03-10T13:03:34.594Z,20
2019-03-10T13:04:34.287Z,20
2019-03-10T13:05:35.054Z,15
2019-03-10T13:06:34.431Z,15
2019-03-10T13:07:34.446Z,20
2019-03-10T13:08:35.855Z,20
2019-03-10T13:09:34.268Z,15
2019-03-10T13:10:35.900Z,20
2019-03-10T13:11:34.444Z,20
2019-03-10T13:12:34.387Z,15
2019-03-10T13:13:34.412Z,10
2019-03-10T13:14:35.887Z,10
2019-03-10T13:15:34.335Z,5
2019-03-10T13:16:34.269Z,5
2019-03-10T13:17:34.357Z,10
2019-03-10T13:18:34.457Z,10
2019-03-10T13:19:34.398Z,10
2019-03-10T13:20:45.160Z,15
2019-03-10T13:21:35.937Z,15
2019-03-10T13:22:34.442Z,20
2019-03-10T13:23:34.440Z,15
2019-03-10T13:24:34.363Z,30
2019-03-10T13:25:34.618Z,35
2019-03-10T13:26:36.691Z,15
2019-03-10T13:27:34.540Z,35
2019-03-10T13:28:34.279Z,35
2019-03-10T13:29:34.428Z,40
2019-03-10T13:30:34.488Z,40
2019-03-10T13:31:34.408Z,20
2019-03-10T13:32:38.028Z,25
2019-03-10T13:33:35.709Z,25
2019-03-10T13:34:34.406Z,20
2019-03-10T13:35:34.580Z,40
2019-03-10T13:36:34.546Z,35
2019-03-10T13:37:34.386Z,10
2019-03-10T13:38:34.858Z,40
2019-03-10T13:39:34.348Z,15
2019-03-10T13:40:34.328Z,25
2019-03-10T13:41:34.464Z,35
2019-03-10T13:42:34.440Z,35
2019-03-10T13:43:34.535Z,10
2019-03-10T13:44:37.113Z,10
2019-03-10T13:45:34.608Z,15
2019-03-10T13:46:34.565Z,15
2019-03-10T13:47:34.463Z,15
2019-03-10T13:48:35.068Z,20
2019-03-10T13:49:34.474Z,20
2019-03-10T13:50:34.893Z,20
2019-03-10T13:51:34.473Z,15
2019-03-10T13:52:34.500Z,10
2019-03-10T13:53:34.501Z,10
2019-03-10T13:54:34.605Z,10
2019-03-10T13:55:35.341Z,10
2019-03-10T13:56:34.803Z,10
2019-03-10T13:57:34.518Z,10
2019-03-10T13:58:34.723Z,15
2019-03-10T13:59:34.635Z,30
2019-03-10T14:00:34.680Z,40
2019-03-10T14:01:34.355Z,20
2019-03-10T14:02:34.666Z,40
2019-03-10T14:03:34.423Z,35
2019-03-10T14:04:34.364Z,35
2019-03-10T14:05:34.347Z,30
2019-03-10T14:06:34.904Z,35
2019-03-10T14:07:34.610Z,20
2019-03-10T14:08:35.973Z,30
2019-03-10T14:09:34.497Z,30
2019-03-10T14:10:34.584Z,35
2019-03-10T14:11:34.527Z,30
2019-03-10T14:12:34.423Z,30
2019-03-10T14:13:34.339Z,30
2019-03-10T14:14:35.697Z,35
2019-03-10T14:15:34.277Z,35
2019-03-10T14:16:34.548Z,30
2019-03-10T14:17:35.104Z,30
2019-03-10T14:18:34.388Z,30
2019-03-10T14:19:34.418Z,30
2019-03-10T14:20:34.415Z,10
2019-03-10T14:21:35.809Z,30
2019-03-10T14:22:34.271Z,30
2019-03-10T14:23:34.485Z,10
2019-03-10T14:24:34.972Z,35
2019-03-10T14:34:14.834Z,20
2019-03-10T14:34:29.601Z,15
2019-03-10T14:35:29.021Z,10
2019-03-10T14:36:28.882Z,10
2019-03-10T14:37:28.906Z,10
2019-03-10T14:38:28.885Z,20
2019-03-10T14:39:30.845Z,20
2019-03-10T14:40:28.988Z,35
2019-03-10T14:41:28.975Z,35
2019-03-10T14:42:28.931Z,35
2019-03-10T14:43:28.895Z,15
2019-03-10T14:44:28.924Z,25
2019-03-10T14:45:31.028Z,30
2019-03-10T14:46:29.014Z,25
2019-03-10T14:47:32.220Z,5
2019-03-10T14:48:29.898Z,30
2019-03-10T14:49:36.243Z,30
2019-03-10T14:50:28.933Z,30
2019-03-10T14:51:29.392Z,15
2019-03-10T14:52:29.049Z,30
2019-03-10T14:53:28.963Z,15
2019-03-10T14:54:28.962Z,10
2019-03-10T14:55:29.058Z,10
2019-03-10T14:56:29.612Z,5
2019-03-10T14:57:31.469Z,10
2019-03-10T14:58:30.796Z,5
2019-03-10T14:59:29.026Z,5
2019-03-10T15:00:29.057Z,5
2019-03-10T15:01:29.153Z,5
2019-03-10T15:02:30.431Z,10
2019-03-10T15:03:30.373Z,30
2019-03-10T15:04:30.644Z,15
2019-03-10T15:05:28.961Z,15
2019-03-10T15:06:29.031Z,15
2019-03-10T15:07:28.957Z,15
2019-03-10T15:08:29.732Z,30
2019-03-10T15:09:29.493Z,20
2019-03-10T15:10:29.694Z,30
2019-03-10T15:11:29.071Z,10
2019-03-10T15:12:29.018Z,10
2019-03-10T15:13:29.024Z,25
2019-03-10T15:14:29.232Z,30
2019-03-10T15:15:36.983Z,10
2019-03-10T15:16:29.056Z,25
2019-03-10T15:17:29.166Z,30
2019-03-10T15:18:29.080Z,25
2019-03-10T15:19:29.108Z,25
2019-03-10T15:20:31.687Z,25
2019-03-10T15:21:31.359Z,20
2019-03-10T15:22:29.606Z,20
2019-03-10T15:23:29.260Z,20
2019-03-10T15:24:30.342Z,20
2019-03-10T15:25:33.379Z,20
2019-03-10T15:26:29.090Z,5
2019-03-10T15:27:36.757Z,20
2019-03-10T15:28:29.641Z,20
2019-03-10T15:29:29.922Z,15
2019-03-10T15:30:29.286Z,20
2019-03-10T15:31:30.071Z,20
2019-03-10T15:32:29.147Z,20
2019-03-10T15:33:30.450Z,5
2019-03-10T15:34:31.357Z,20
2019-03-10T15:35:29.069Z,20
2019-03-10T15:36:33.364Z,20
2019-03-10T15:37:29.064Z,20
2019-03-10T15:38:29.083Z,15
2019-03-10T15:39:31.342Z,20
2019-03-10T15:40:28.987Z,15